createdAt,value
2016-09-24T00:00:00.870Z,13.4
2016-09-24T00:00:10.864Z,13.4
2016-09-24T00:00:20.859Z,13.4
2016-09-24T00:00:30.855Z,13.4
2016-09-24T00:00:40.849Z,13.4
2016-09-24T00:00:50.842Z,13.4
2016-09-24T00:01:00.838Z,13.5
2016-09-24T00:01:10.832Z,13.4
2016-09-24T00:01:20.828Z,13.4
2016-09-24T00:01:30.823Z,13.4
2016-09-24T00:01:40.819Z,13.4
2016-09-24T00:01:50.814Z,13.4
2016-09-24T00:02:00.807Z,13.4
2016-09-24T00:02:10.804Z,13.5
2016-09-24T00:02:20.798Z,13.4
2016-09-24T00:02:30.792Z,13.4
2016-09-24T00:02:40.787Z,13.4
2016-09-24T00:02:50.780Z,13.5
2016-09-24T00:03:00.776Z,13.4
2016-09-24T00:03:10.770Z,13.4
2016-09-24T00:03:20.775Z,13.4
2016-09-24T00:03:30.761Z,13.5
2016-09-24T00:03:40.755Z,13.4
2016-09-24T00:03:50.751Z,13.4
2016-09-24T00:04:00.746Z,13.4
2016-09-24T00:04:10.740Z,13.4
2016-09-24T00:04:20.735Z,13.4
2016-09-24T00:04:30.730Z,13.4
2016-09-24T00:04:40.724Z,13.4
2016-09-24T00:04:50.719Z,13.5
2016-09-24T00:05:00.715Z,13.5
2016-09-24T00:05:10.707Z,13.5
2016-09-24T00:05:20.705Z,13.4
2016-09-24T00:05:30.699Z,13.5
2016-09-24T00:05:40.695Z,13.4
2016-09-24T00:05:50.689Z,13.5
2016-09-24T00:06:00.683Z,13.5
2016-09-24T00:06:10.679Z,13.4
2016-09-24T00:06:20.673Z,13.4
2016-09-24T00:06:30.668Z,13.4
2016-09-24T00:06:40.663Z,13.5
2016-09-24T00:06:50.657Z,13.5
2016-09-24T00:07:00.652Z,13.5
2016-09-24T00:07:10.647Z,13.5
2016-09-24T00:07:20.642Z,13.5
2016-09-24T00:07:30.636Z,13.5
2016-09-24T00:07:40.631Z,13.5
2016-09-24T00:07:50.627Z,13.4
2016-09-24T00:08:00.621Z,13.4
2016-09-24T00:08:10.614Z,13.4
2016-09-24T00:08:20.610Z,13.4
2016-09-24T00:08:30.606Z,13.5
2016-09-24T00:08:40.600Z,13.5
2016-09-24T00:08:50.596Z,13.5
2016-09-24T00:09:00.591Z,13.4
2016-09-24T00:09:10.585Z,13.4
2016-09-24T00:09:20.580Z,13.5
2016-09-24T00:09:30.575Z,13.5
2016-09-24T00:09:40.570Z,13.4
2016-09-24T00:09:50.564Z,13.5
2016-09-24T00:10:00.559Z,13.5
2016-09-24T00:10:10.554Z,13.4
2016-09-24T00:10:20.549Z,13.3
2016-09-24T00:10:30.544Z,13.5
2016-09-24T00:10:40.539Z,13.4
2016-09-24T00:10:50.533Z,13.4
2016-09-24T00:11:00.528Z,13.4
2016-09-24T00:11:10.522Z,13.4
2016-09-24T00:11:20.517Z,13.4
2016-09-24T00:11:30.513Z,13.4
2016-09-24T00:11:40.508Z,13.5
2016-09-24T00:11:50.502Z,13.5
2016-09-24T00:12:00.496Z,13.5
2016-09-24T00:12:10.492Z,13.4
2016-09-24T00:12:20.487Z,13.4
2016-09-24T00:12:30.482Z,13.4
2016-09-24T00:12:40.475Z,13.5
2016-09-24T00:12:50.470Z,13.4
2016-09-24T00:13:00.466Z,13.4
2016-09-24T00:13:10.461Z,13.4
2016-09-24T00:13:20.456Z,13.4
2016-09-24T00:13:30.449Z,13.4
2016-09-24T00:13:40.445Z,13.4
2016-09-24T00:13:50.440Z,13.4
2016-09-24T00:14:00.435Z,13.4
2016-09-24T00:14:10.429Z,13.4
2016-09-24T00:14:20.425Z,13.4
2016-09-24T00:14:30.419Z,13.5
2016-09-24T00:14:40.414Z,13.5
2016-09-24T00:14:50.409Z,13.4
2016-09-24T00:15:00.403Z,13.4
2016-09-24T00:15:10.399Z,13.3
2016-09-24T00:15:20.393Z,13.3
2016-09-24T00:15:30.388Z,13.3
2016-09-24T00:15:40.383Z,13.3
2016-09-24T00:15:50.377Z,13.3
2016-09-24T00:16:00.373Z,13.3
2016-09-24T00:16:10.368Z,13.2
2016-09-24T00:16:20.367Z,13.2
2016-09-24T00:16:30.357Z,13.2
2016-09-24T00:16:40.352Z,13.2
2016-09-24T00:16:50.347Z,13.2
2016-09-24T00:17:00.343Z,13.2
2016-09-24T00:17:10.334Z,13.3
2016-09-24T00:17:20.331Z,13.3
2016-09-24T00:17:30.325Z,13.3
2016-09-24T00:17:40.321Z,13.2
2016-09-24T00:17:50.313Z,13.2
2016-09-24T00:18:00.311Z,13.2
2016-09-24T00:18:10.306Z,13.2
2016-09-24T00:18:20.299Z,13.2
2016-09-24T00:18:30.309Z,13.4
2016-09-24T00:18:40.290Z,13.2
2016-09-24T00:18:50.284Z,13.2
2016-09-24T00:19:00.282Z,13.2
2016-09-24T00:19:10.274Z,13.3
2016-09-24T00:19:20.268Z,13.2
2016-09-24T00:19:30.263Z,13.3
2016-09-24T00:19:40.259Z,13.3
2016-09-24T00:19:50.253Z,13.2
2016-09-24T00:20:00.248Z,13.2
2016-09-24T00:20:10.242Z,13.2
2016-09-24T00:20:20.238Z,13.2
2016-09-24T00:20:30.233Z,13.2
2016-09-24T00:20:40.227Z,13.2
2016-09-24T00:20:50.222Z,13.3
2016-09-24T00:21:00.217Z,13.3
2016-09-24T00:21:10.212Z,13.2
2016-09-24T00:21:20.207Z,13.2
2016-09-24T00:21:30.201Z,13.2
2016-09-24T00:21:40.197Z,13.2
2016-09-24T00:21:50.191Z,13.2
2016-09-24T00:22:00.185Z,13.2
2016-09-24T00:22:10.187Z,13.2
2016-09-24T00:22:20.175Z,13.2
2016-09-24T00:22:30.170Z,13.2
2016-09-24T00:22:40.164Z,13.2
2016-09-24T00:22:50.159Z,13.1
2016-09-24T00:23:00.155Z,13.1
2016-09-24T00:23:10.150Z,13.2
2016-09-24T00:23:20.143Z,13.2
2016-09-24T00:23:30.140Z,13.1
2016-09-24T00:23:40.134Z,13.2
2016-09-24T00:23:50.129Z,13.2
2016-09-24T00:24:00.124Z,13.1
2016-09-24T00:24:10.117Z,13.1
2016-09-24T00:24:20.113Z,13.1
2016-09-24T00:24:30.109Z,13.2
2016-09-24T00:24:40.102Z,13.2
2016-09-24T00:24:50.098Z,13.2
2016-09-24T00:25:00.094Z,13.1
2016-09-24T00:25:10.087Z,13.1
2016-09-24T00:25:20.089Z,13.2
2016-09-24T00:25:30.077Z,13.1
2016-09-24T00:25:40.071Z,13.1
2016-09-24T00:25:50.067Z,13.1
2016-09-24T00:26:00.060Z,13.2
2016-09-24T00:26:10.056Z,13.2
2016-09-24T00:26:20.051Z,13.2
2016-09-24T00:26:30.045Z,13.2
2016-09-24T00:26:40.041Z,13.2
2016-09-24T00:26:50.033Z,13.2
2016-09-24T00:27:00.031Z,13.2
2016-09-24T00:27:10.025Z,13.2
2016-09-24T00:27:20.020Z,13.2
2016-09-24T00:27:30.014Z,13.2
2016-09-24T00:27:40.010Z,13.1
2016-09-24T00:27:50.005Z,13.1
2016-09-24T00:27:59.999Z,13.1
2016-09-24T00:28:09.993Z,13.1
2016-09-24T00:28:19.989Z,13.1
2016-09-24T00:28:29.984Z,13.2
2016-09-24T00:28:39.977Z,13.1
2016-09-24T00:28:49.973Z,13.1
2016-09-24T00:28:59.968Z,13.2
2016-09-24T00:29:09.963Z,13.1
2016-09-24T00:29:19.958Z,13.2
2016-09-24T00:29:29.952Z,13.1
2016-09-24T00:29:39.947Z,13.1
2016-09-24T00:29:49.942Z,13.1
2016-09-24T00:29:59.936Z,13.1
2016-09-24T00:30:09.931Z,13.1
2016-09-24T00:30:19.927Z,13.1
2016-09-24T00:30:29.920Z,13.1
2016-09-24T00:30:39.915Z,13.1
2016-09-24T00:30:49.910Z,13.1
2016-09-24T00:30:59.905Z,13.1
2016-09-24T00:31:09.900Z,13.2
2016-09-24T00:31:19.894Z,13.1
2016-09-24T00:31:29.890Z,13.1
2016-09-24T00:31:39.885Z,13.1
2016-09-24T00:31:49.879Z,13.1
2016-09-24T00:31:59.880Z,13.1
2016-09-24T00:32:09.869Z,13.1
2016-09-24T00:32:19.864Z,13.1
2016-09-24T00:32:29.859Z,13.1
2016-09-24T00:32:39.854Z,13.1
2016-09-24T00:32:49.848Z,13.1
2016-09-24T00:32:59.844Z,13.2
2016-09-24T00:33:09.838Z,13.1
2016-09-24T00:33:19.832Z,13.1
2016-09-24T00:33:29.826Z,13.2
2016-09-24T00:33:39.821Z,13.1
2016-09-24T00:33:49.823Z,13.1
2016-09-24T00:33:59.811Z,13.1
2016-09-24T00:34:09.807Z,13.1
2016-09-24T00:34:19.801Z,13.1
2016-09-24T00:34:29.796Z,13.1
2016-09-24T00:34:39.791Z,13.2
2016-09-24T00:34:49.785Z,13.1
2016-09-24T00:34:59.781Z,13.1
2016-09-24T00:35:09.775Z,13.2
2016-09-24T00:35:19.769Z,13.1
2016-09-24T00:35:29.764Z,13.1
2016-09-24T00:35:39.760Z,13.1
2016-09-24T00:35:49.753Z,13.1
2016-09-24T00:35:59.750Z,13.2
2016-09-24T00:36:09.744Z,13.1
2016-09-24T00:36:19.739Z,13.1
2016-09-24T00:36:29.735Z,13.1
2016-09-24T00:36:39.728Z,13.1
2016-09-24T00:36:49.738Z,13.1
2016-09-24T00:36:59.718Z,13.1
2016-09-24T00:37:09.712Z,13.1
2016-09-24T00:37:19.708Z,13.1
2016-09-24T00:37:29.702Z,13.1
2016-09-24T00:37:39.698Z,13.1
2016-09-24T00:37:49.692Z,13.1
2016-09-24T00:37:59.686Z,13.1
2016-09-24T00:38:09.681Z,13.1
2016-09-24T00:38:19.677Z,13.1
2016-09-24T00:38:29.672Z,13.1
2016-09-24T00:38:39.666Z,13.2
2016-09-24T00:38:49.660Z,13.1
2016-09-24T00:38:59.656Z,13.1
2016-09-24T00:39:09.652Z,13.1
2016-09-24T00:39:19.648Z,13.1
2016-09-24T00:39:29.640Z,13.1
2016-09-24T00:39:39.636Z,13.1
2016-09-24T00:39:49.628Z,13.1
2016-09-24T00:39:59.624Z,13.1
2016-09-24T00:40:09.619Z,13.1
2016-09-24T00:40:19.613Z,13.1
2016-09-24T00:40:29.608Z,13.2
2016-09-24T00:40:39.603Z,13.1
2016-09-24T00:40:49.598Z,13.1
2016-09-24T00:40:59.594Z,13.1
2016-09-24T00:41:09.587Z,13.1
2016-09-24T00:41:19.584Z,13.1
2016-09-24T00:41:29.578Z,13.2
2016-09-24T00:41:39.573Z,13.1
2016-09-24T00:41:49.568Z,13.1
2016-09-24T00:41:59.561Z,13.1
2016-09-24T00:42:09.557Z,13.1
2016-09-24T00:42:19.551Z,13.1
2016-09-24T00:42:29.545Z,13.1
2016-09-24T00:42:39.541Z,13.1
2016-09-24T00:42:49.535Z,13.1
2016-09-24T00:42:59.530Z,13.1
2016-09-24T00:43:09.526Z,13.1
2016-09-24T00:43:19.520Z,13.1
2016-09-24T00:43:29.516Z,13.1
2016-09-24T00:43:39.510Z,13.1
2016-09-24T00:43:49.505Z,13.1
2016-09-24T00:43:59.499Z,13.1
2016-09-24T00:44:09.494Z,13.1
2016-09-24T00:44:19.489Z,13.1
2016-09-24T00:44:29.485Z,13.1
2016-09-24T00:44:39.478Z,13.1
2016-09-24T00:44:49.474Z,13.1
2016-09-24T00:44:59.468Z,13.1
2016-09-24T00:45:09.462Z,13.1
2016-09-24T00:45:19.473Z,13.1
2016-09-24T00:45:29.453Z,13.2
2016-09-24T00:45:39.449Z,13.2
2016-09-24T00:45:49.442Z,13.2
2016-09-24T00:45:59.436Z,13.2
2016-09-24T00:46:09.432Z,13.2
2016-09-24T00:46:19.427Z,13.2
2016-09-24T00:46:29.422Z,13.1
2016-09-24T00:46:39.417Z,13.1
2016-09-24T00:46:49.411Z,13.1
2016-09-24T00:46:59.405Z,13.1
2016-09-24T00:47:09.401Z,13
2016-09-24T00:47:19.395Z,13.1
2016-09-24T00:47:29.390Z,13.1
2016-09-24T00:47:39.386Z,13.1
2016-09-24T00:47:49.379Z,13.1
2016-09-24T00:47:59.376Z,13.1
2016-09-24T00:48:09.369Z,13.1
2016-09-24T00:48:19.365Z,13.1
2016-09-24T00:48:29.360Z,13.2
2016-09-24T00:48:39.354Z,13.1
2016-09-24T00:48:49.349Z,13.1
2016-09-24T00:48:59.344Z,13.1
2016-09-24T00:49:09.338Z,13.1
2016-09-24T00:49:19.333Z,13.2
2016-09-24T00:49:29.325Z,13.2
2016-09-24T00:49:39.322Z,13.2
2016-09-24T00:49:49.318Z,13.1
2016-09-24T00:49:59.312Z,13.2
2016-09-24T00:50:09.307Z,13.1
2016-09-24T00:50:19.303Z,13.1
2016-09-24T00:50:29.297Z,13.1
2016-09-24T00:50:39.293Z,13.1
2016-09-24T00:50:49.286Z,13.2
2016-09-24T00:50:59.281Z,13.1
2016-09-24T00:51:09.276Z,13.1
2016-09-24T00:51:19.271Z,13.1
2016-09-24T00:51:29.265Z,13.1
2016-09-24T00:51:39.261Z,13.2
2016-09-24T00:51:49.256Z,13.1
2016-09-24T00:51:59.251Z,13.1
2016-09-24T00:52:09.245Z,13.1
2016-09-24T00:52:19.240Z,13.1
2016-09-24T00:52:29.236Z,13.1
2016-09-24T00:52:39.230Z,13.2
2016-09-24T00:52:49.224Z,13.1
2016-09-24T00:52:59.219Z,13.1
2016-09-24T00:53:09.213Z,13.1
2016-09-24T00:53:19.209Z,13.1
2016-09-24T00:53:29.202Z,13.1
2016-09-24T00:53:39.198Z,13.1
2016-09-24T00:53:49.193Z,13.1
2016-09-24T00:53:59.189Z,13.1
2016-09-24T00:54:09.182Z,13.1
2016-09-24T00:54:19.177Z,13.1
2016-09-24T00:54:29.172Z,13.1
2016-09-24T00:54:39.167Z,13.1
2016-09-24T00:54:49.161Z,13.1
2016-09-24T00:54:59.156Z,13.1
2016-09-24T00:55:09.152Z,13.1
2016-09-24T00:55:19.146Z,13.1
2016-09-24T00:55:29.141Z,13.1
2016-09-24T00:55:39.137Z,13.2
2016-09-24T00:55:49.131Z,13.1
2016-09-24T00:55:59.125Z,13.1
2016-09-24T00:56:09.118Z,13.1
2016-09-24T00:56:19.115Z,13.1
2016-09-24T00:56:29.110Z,13.1
2016-09-24T00:56:39.103Z,13.1
2016-09-24T00:56:49.098Z,13.1
2016-09-24T00:56:59.095Z,13.1
2016-09-24T00:57:09.089Z,13.1
2016-09-24T00:57:19.084Z,13.1
2016-09-24T00:57:29.079Z,13.1
2016-09-24T00:57:39.074Z,13.1
2016-09-24T00:57:49.069Z,13.1
2016-09-24T00:57:59.062Z,13.1
2016-09-24T00:58:09.058Z,13.2
2016-09-24T00:58:19.052Z,13.1
2016-09-24T00:58:29.047Z,13.1
2016-09-24T00:58:39.041Z,13.1
2016-09-24T00:58:49.037Z,13.1
2016-09-24T00:58:59.031Z,13.1
2016-09-24T00:59:09.027Z,13.2
2016-09-24T00:59:19.021Z,13.1
2016-09-24T00:59:29.016Z,13.1
2016-09-24T00:59:39.011Z,13
2016-09-24T00:59:49.005Z,13.1
2016-09-24T00:59:59.001Z,13.1
2016-09-24T01:00:08.994Z,13.1
2016-09-24T01:00:18.990Z,13.1
2016-09-24T01:00:28.985Z,13.1
2016-09-24T01:00:38.980Z,13.1
2016-09-24T01:00:48.975Z,13.2
2016-09-24T01:00:58.969Z,13.1
2016-09-24T01:01:08.964Z,13.1
2016-09-24T01:01:18.959Z,13.2
2016-09-24T01:01:28.953Z,13.1
2016-09-24T01:01:38.949Z,13.1
2016-09-24T01:01:48.944Z,13.1
2016-09-24T01:01:58.938Z,13.1
2016-09-24T01:02:08.933Z,13.2
2016-09-24T01:02:18.928Z,13.1
2016-09-24T01:02:28.927Z,13.2
2016-09-24T01:02:38.917Z,13
2016-09-24T01:02:48.911Z,13.1
2016-09-24T01:02:58.907Z,13.1
2016-09-24T01:03:08.902Z,13.1
2016-09-24T01:03:18.897Z,13.1
2016-09-24T01:03:28.892Z,13.1
2016-09-24T01:03:38.887Z,13.1
2016-09-24T01:03:48.881Z,13.1
2016-09-24T01:03:58.875Z,13.1
2016-09-24T01:04:08.870Z,13.1
2016-09-24T01:04:18.865Z,13.1
2016-09-24T01:04:28.861Z,13.2
2016-09-24T01:04:38.855Z,13.1
2016-09-24T01:04:48.849Z,13.2
2016-09-24T01:04:58.845Z,13.1
2016-09-24T01:05:08.839Z,13.1
2016-09-24T01:05:18.834Z,13.1
2016-09-24T01:05:28.829Z,13.2
2016-09-24T01:05:38.823Z,13.1
2016-09-24T01:05:48.817Z,13.2
2016-09-24T01:05:58.812Z,13.1
2016-09-24T01:06:08.808Z,13.2
2016-09-24T01:06:18.803Z,13.2
2016-09-24T01:06:28.797Z,13.2
2016-09-24T01:06:38.793Z,13.2
2016-09-24T01:06:48.787Z,13.2
2016-09-24T01:06:58.782Z,13.2
2016-09-24T01:07:08.777Z,13.2
2016-09-24T01:07:18.771Z,13.2
2016-09-24T01:07:28.767Z,13.2
2016-09-24T01:07:38.762Z,13.2
2016-09-24T01:07:48.754Z,13.2
2016-09-24T01:07:58.751Z,13.2
2016-09-24T01:08:08.745Z,13.2
2016-09-24T01:08:18.749Z,13.1
2016-09-24T01:08:28.740Z,13.2
2016-09-24T01:08:38.729Z,13.2
2016-09-24T01:08:48.724Z,13.3
2016-09-24T01:08:58.720Z,13.2
2016-09-24T01:09:08.714Z,13.2
2016-09-24T01:09:18.708Z,13.2
2016-09-24T01:09:28.702Z,13.3
2016-09-24T01:09:38.703Z,13.3
2016-09-24T01:09:48.693Z,13.3
2016-09-24T01:09:58.688Z,13.3
2016-09-24T01:10:08.683Z,13.2
2016-09-24T01:10:18.677Z,13.3
2016-09-24T01:10:28.673Z,13.2
2016-09-24T01:10:38.667Z,13.3
2016-09-24T01:10:48.661Z,13.3
2016-09-24T01:10:58.657Z,13.2
2016-09-24T01:11:08.653Z,13.2
2016-09-24T01:11:18.645Z,13.3
2016-09-24T01:11:28.641Z,13.3
2016-09-24T01:11:38.636Z,13.3
2016-09-24T01:11:48.630Z,13.4
2016-09-24T01:11:58.626Z,13.3
2016-09-24T01:12:08.620Z,13.3
2016-09-24T01:12:18.615Z,13.4
2016-09-24T01:12:28.610Z,13.4
2016-09-24T01:12:38.605Z,13.3
2016-09-24T01:12:48.599Z,13.3
2016-09-24T01:12:58.595Z,13.3
2016-09-24T01:13:08.589Z,13.3
2016-09-24T01:13:18.583Z,13.3
2016-09-24T01:13:28.579Z,13.3
2016-09-24T01:13:38.574Z,13.3
2016-09-24T01:13:48.569Z,13.2
2016-09-24T01:13:58.562Z,13.2
2016-09-24T01:14:08.559Z,13.2
2016-09-24T01:14:18.553Z,13.2
2016-09-24T01:14:28.546Z,13.1
2016-09-24T01:14:38.543Z,13.1
2016-09-24T01:14:48.537Z,13.1
2016-09-24T01:14:58.531Z,13.1
2016-09-24T01:15:08.527Z,13.1
2016-09-24T01:15:18.522Z,13.1
2016-09-24T01:15:28.517Z,13.2
2016-09-24T01:15:38.511Z,13.1
2016-09-24T01:15:48.506Z,13.2
2016-09-24T01:15:58.502Z,13.1
2016-09-24T01:16:08.495Z,13.1
2016-09-24T01:16:18.489Z,13.1
2016-09-24T01:16:28.486Z,13.1
2016-09-24T01:16:38.479Z,13.1
2016-09-24T01:16:48.474Z,13.1
2016-09-24T01:16:58.469Z,13.1
2016-09-24T01:17:08.465Z,13.1
2016-09-24T01:17:18.459Z,13.1
2016-09-24T01:17:28.454Z,13.1
2016-09-24T01:17:38.449Z,13.1
2016-09-24T01:17:48.444Z,13.1
2016-09-24T01:17:58.439Z,13.1
2016-09-24T01:18:08.433Z,13.1
2016-09-24T01:18:18.433Z,13.1
2016-09-24T01:18:28.422Z,13.1
2016-09-24T01:18:38.416Z,13.2
2016-09-24T01:18:48.409Z,13.2
2016-09-24T01:18:58.407Z,13.2
2016-09-24T01:19:08.402Z,13.3
2016-09-24T01:19:18.396Z,13.3
2016-09-24T01:19:28.391Z,13.3
2016-09-24T01:19:38.386Z,13.4
2016-09-24T01:19:48.381Z,13.3
2016-09-24T01:19:58.376Z,13.4
2016-09-24T01:20:08.370Z,13.3
2016-09-24T01:20:18.365Z,13.2
2016-09-24T01:20:28.360Z,13.3
2016-09-24T01:20:38.354Z,13.3
2016-09-24T01:20:48.348Z,13.3
2016-09-24T01:20:58.345Z,13.2
2016-09-24T01:21:08.338Z,13.3
2016-09-24T01:21:18.333Z,13.3
2016-09-24T01:21:28.329Z,13.2
2016-09-24T01:21:38.323Z,13.3
2016-09-24T01:21:48.319Z,13.3
2016-09-24T01:21:58.319Z,13.3
2016-09-24T01:22:08.307Z,13.2
2016-09-24T01:22:18.303Z,13.3
2016-09-24T01:22:28.297Z,13.2
2016-09-24T01:22:38.292Z,13.2
2016-09-24T01:22:48.286Z,13.2
2016-09-24T01:22:58.281Z,13.2
2016-09-24T01:23:08.276Z,13.3
2016-09-24T01:23:18.270Z,13.3
2016-09-24T01:23:28.266Z,13.2
2016-09-24T01:23:38.261Z,13.2
2016-09-24T01:23:48.255Z,13.2
2016-09-24T01:23:58.250Z,13.2
2016-09-24T01:24:08.244Z,13.2
2016-09-24T01:24:18.240Z,13.3
2016-09-24T01:24:28.235Z,13.2
2016-09-24T01:24:38.230Z,13.3
2016-09-24T01:24:48.224Z,13.2
2016-09-24T01:24:58.219Z,13.1
2016-09-24T01:25:08.213Z,13.2
2016-09-24T01:25:18.209Z,13.1
2016-09-24T01:25:28.203Z,13.1
2016-09-24T01:25:38.198Z,13.1
2016-09-24T01:25:48.192Z,13.2
2016-09-24T01:25:58.187Z,13.1
2016-09-24T01:26:08.183Z,13.2
2016-09-24T01:26:18.178Z,13.2
2016-09-24T01:26:28.172Z,13.1
2016-09-24T01:26:38.167Z,13.2
2016-09-24T01:26:48.161Z,13.2
2016-09-24T01:26:58.160Z,13.2
2016-09-24T01:27:08.152Z,13.2
2016-09-24T01:27:18.144Z,13.1
2016-09-24T01:27:28.140Z,13.1
2016-09-24T01:27:38.134Z,13.1
2016-09-24T01:27:48.129Z,13.1
2016-09-24T01:27:58.124Z,13.1
2016-09-24T01:28:08.119Z,13.1
2016-09-24T01:28:18.115Z,13.1
2016-09-24T01:28:28.110Z,13.1
2016-09-24T01:28:38.104Z,13.1
2016-09-24T01:28:48.098Z,13.1
2016-09-24T01:28:58.096Z,13.1
2016-09-24T01:29:08.093Z,13.1
2016-09-24T01:29:18.084Z,13.2
2016-09-24T01:29:28.076Z,13.1
2016-09-24T01:29:38.071Z,13.1
2016-09-24T01:29:48.068Z,13.1
2016-09-24T01:29:58.061Z,13.1
2016-09-24T01:30:08.058Z,13.1
2016-09-24T01:30:18.053Z,13.2
2016-09-24T01:30:28.046Z,13.1
2016-09-24T01:30:38.042Z,13.1
2016-09-24T01:30:48.036Z,13.1
2016-09-24T01:30:58.031Z,13.1
2016-09-24T01:31:08.026Z,13.1
2016-09-24T01:31:18.020Z,13.2
2016-09-24T01:31:28.014Z,13.1
2016-09-24T01:31:38.010Z,13.1
2016-09-24T01:31:48.005Z,13.1
2016-09-24T01:31:57.999Z,13.1
2016-09-24T01:32:07.994Z,13.1
2016-09-24T01:32:17.990Z,13.1
2016-09-24T01:32:27.984Z,13.1
2016-09-24T01:32:37.978Z,13.2
2016-09-24T01:32:47.974Z,13.1
2016-09-24T01:32:57.968Z,13.1
2016-09-24T01:33:07.963Z,13.1
2016-09-24T01:33:17.959Z,13.1
2016-09-24T01:33:27.953Z,13.1
2016-09-24T01:33:37.946Z,13.1
2016-09-24T01:33:47.942Z,13.1
2016-09-24T01:33:57.936Z,13.1
2016-09-24T01:34:07.931Z,13.1
2016-09-24T01:34:17.927Z,13.1
2016-09-24T01:34:27.920Z,13.1
2016-09-24T01:34:37.916Z,13.1
2016-09-24T01:34:47.909Z,13.1
2016-09-24T01:34:57.905Z,13.1
2016-09-24T01:35:07.901Z,13.1
2016-09-24T01:35:17.895Z,13.1
2016-09-24T01:35:27.890Z,13.2
2016-09-24T01:35:37.885Z,13.1
2016-09-24T01:35:47.880Z,13.1
2016-09-24T01:35:57.875Z,13.1
2016-09-24T01:36:07.869Z,13.1
2016-09-24T01:36:17.864Z,13
2016-09-24T01:36:27.858Z,13
2016-09-24T01:36:37.851Z,13
2016-09-24T01:36:47.846Z,13.1
2016-09-24T01:36:57.842Z,13.1
2016-09-24T01:37:07.838Z,13
2016-09-24T01:37:17.833Z,13
2016-09-24T01:37:27.827Z,13
2016-09-24T01:37:37.822Z,13
2016-09-24T01:37:47.818Z,13
2016-09-24T01:37:57.811Z,13
2016-09-24T01:38:07.806Z,13
2016-09-24T01:38:17.801Z,13.1
2016-09-24T01:38:27.795Z,13
2016-09-24T01:38:37.791Z,13
2016-09-24T01:38:47.784Z,12.9
2016-09-24T01:38:57.780Z,13
2016-09-24T01:39:07.776Z,13
2016-09-24T01:39:17.770Z,13
2016-09-24T01:39:27.765Z,13
2016-09-24T01:39:37.760Z,12.9
2016-09-24T01:39:47.754Z,13
2016-09-24T01:39:57.749Z,12.9
2016-09-24T01:40:07.743Z,13
2016-09-24T01:40:17.739Z,13
2016-09-24T01:40:27.733Z,13
2016-09-24T01:40:37.728Z,13.1
2016-09-24T01:40:47.722Z,13
2016-09-24T01:40:57.718Z,12.9
2016-09-24T01:41:07.712Z,13
2016-09-24T01:41:17.707Z,13
2016-09-24T01:41:27.700Z,13
2016-09-24T01:41:37.697Z,13
2016-09-24T01:41:47.692Z,13
2016-09-24T01:41:57.705Z,13
2016-09-24T01:42:07.681Z,13
2016-09-24T01:42:17.677Z,13
2016-09-24T01:42:27.671Z,13
2016-09-24T01:42:37.665Z,13
2016-09-24T01:42:47.660Z,13
2016-09-24T01:42:57.655Z,12.9
2016-09-24T01:43:07.650Z,13.1
2016-09-24T01:43:17.644Z,12.9
2016-09-24T01:43:27.639Z,13
2016-09-24T01:43:37.632Z,13
2016-09-24T01:43:47.628Z,13
2016-09-24T01:43:57.623Z,13
2016-09-24T01:44:07.618Z,13
2016-09-24T01:44:17.613Z,13
2016-09-24T01:44:27.608Z,13
2016-09-24T01:44:37.603Z,13
2016-09-24T01:44:47.597Z,13
2016-09-24T01:44:57.592Z,13
2016-09-24T01:45:07.586Z,12.9
2016-09-24T01:45:17.580Z,13
2016-09-24T01:45:27.582Z,13.1
2016-09-24T01:45:37.571Z,13
2016-09-24T01:45:47.566Z,13
2016-09-24T01:45:57.560Z,13
2016-09-24T01:46:07.555Z,12.9
2016-09-24T01:46:17.550Z,13
2016-09-24T01:46:27.546Z,13
2016-09-24T01:46:37.540Z,13.1
2016-09-24T01:46:47.535Z,13
2016-09-24T01:46:57.530Z,13
2016-09-24T01:47:07.525Z,13
2016-09-24T01:47:17.519Z,12.9
2016-09-24T01:47:27.512Z,12.9
2016-09-24T01:47:37.508Z,13
2016-09-24T01:47:47.503Z,12.9
2016-09-24T01:47:57.497Z,13
2016-09-24T01:48:07.492Z,12.9
2016-09-24T01:48:17.488Z,13
2016-09-24T01:48:27.483Z,12.9
2016-09-24T01:48:37.477Z,12.9
2016-09-24T01:48:47.472Z,13
2016-09-24T01:48:57.467Z,12.9
2016-09-24T01:49:07.461Z,12.9
2016-09-24T01:49:17.456Z,12.9
2016-09-24T01:49:27.451Z,12.9
2016-09-24T01:49:37.444Z,12.9
2016-09-24T01:49:47.439Z,12.9
2016-09-24T01:49:57.435Z,12.9
2016-09-24T01:50:07.431Z,12.9
2016-09-24T01:50:17.426Z,12.9
2016-09-24T01:50:27.420Z,12.9
2016-09-24T01:50:37.414Z,12.9
2016-09-24T01:50:47.409Z,12.9
2016-09-24T01:50:57.404Z,12.9
2016-09-24T01:51:07.399Z,12.9
2016-09-24T01:51:17.394Z,12.8
2016-09-24T01:51:27.389Z,12.9
2016-09-24T01:51:37.383Z,12.9
2016-09-24T01:51:47.377Z,12.9
2016-09-24T01:51:57.374Z,12.9
2016-09-24T01:52:07.367Z,12.9
2016-09-24T01:52:17.362Z,12.9
2016-09-24T01:52:27.358Z,12.9
2016-09-24T01:52:37.351Z,12.9
2016-09-24T01:52:47.344Z,12.9
2016-09-24T01:52:57.341Z,13
2016-09-24T01:53:07.336Z,12.9
2016-09-24T01:53:17.331Z,12.9
2016-09-24T01:53:27.325Z,12.9
2016-09-24T01:53:37.320Z,12.9
2016-09-24T01:53:47.315Z,12.9
2016-09-24T01:53:57.310Z,12.9
2016-09-24T01:54:07.304Z,12.9
2016-09-24T01:54:17.299Z,12.9
2016-09-24T01:54:27.292Z,12.9
2016-09-24T01:54:37.288Z,12.9
2016-09-24T01:54:47.283Z,12.9
2016-09-24T01:54:57.278Z,12.9
2016-09-24T01:55:07.273Z,12.9
2016-09-24T01:55:17.268Z,12.9
2016-09-24T01:55:27.263Z,12.9
2016-09-24T01:55:37.258Z,12.9
2016-09-24T01:55:47.253Z,12.9
2016-09-24T01:55:57.247Z,13
2016-09-24T01:56:07.242Z,12.9
2016-09-24T01:56:17.235Z,13
2016-09-24T01:56:27.231Z,13
2016-09-24T01:56:37.226Z,12.8
2016-09-24T01:56:47.221Z,12.9
2016-09-24T01:56:57.215Z,12.9
2016-09-24T01:57:07.210Z,12.9
2016-09-24T01:57:17.204Z,12.9
2016-09-24T01:57:27.200Z,12.9
2016-09-24T01:57:37.194Z,13
2016-09-24T01:57:47.190Z,12.9
2016-09-24T01:57:57.184Z,13
2016-09-24T01:58:07.179Z,13
2016-09-24T01:58:17.175Z,12.9
2016-09-24T01:58:27.168Z,12.9
2016-09-24T01:58:37.164Z,13
2016-09-24T01:58:47.157Z,12.9
2016-09-24T01:58:57.152Z,12.9
2016-09-24T01:59:07.148Z,12.9
2016-09-24T01:59:17.142Z,12.8
2016-09-24T01:59:27.137Z,12.9
2016-09-24T01:59:37.133Z,12.9
2016-09-24T01:59:47.127Z,12.9
2016-09-24T01:59:57.121Z,12.9
2016-09-24T02:00:07.116Z,12.9
2016-09-24T02:00:17.111Z,12.9
2016-09-24T02:00:27.106Z,12.9
2016-09-24T02:00:37.100Z,12.9
2016-09-24T02:00:47.095Z,12.9
2016-09-24T02:00:57.092Z,12.9
2016-09-24T02:01:07.102Z,13
2016-09-24T02:01:17.080Z,12.9
2016-09-24T02:01:27.073Z,12.9
2016-09-24T02:01:37.068Z,13
2016-09-24T02:01:47.064Z,12.9
2016-09-24T02:01:57.059Z,13
2016-09-24T02:02:07.054Z,12.9
2016-09-24T02:02:17.050Z,12.9
2016-09-24T02:02:27.043Z,12.9
2016-09-24T02:02:37.037Z,12.9
2016-09-24T02:02:47.033Z,12.9
2016-09-24T02:02:57.026Z,13
2016-09-24T02:03:07.022Z,12.9
2016-09-24T02:03:17.016Z,12.9
2016-09-24T02:03:27.011Z,13
2016-09-24T02:03:37.008Z,13
2016-09-24T02:03:47.001Z,12.9
2016-09-24T02:03:56.996Z,13
2016-09-24T02:04:06.990Z,13
2016-09-24T02:04:16.985Z,13
2016-09-24T02:04:26.981Z,13
2016-09-24T02:04:36.975Z,13.1
2016-09-24T02:04:46.970Z,13
2016-09-24T02:04:56.965Z,13
2016-09-24T02:05:06.959Z,13
2016-09-24T02:05:16.954Z,13.1
2016-09-24T02:05:26.948Z,13
2016-09-24T02:05:36.943Z,13.1
2016-09-24T02:05:46.938Z,13
2016-09-24T02:05:56.932Z,13.1
2016-09-24T02:06:06.927Z,13
2016-09-24T02:06:16.923Z,13.1
2016-09-24T02:06:26.917Z,13
2016-09-24T02:06:36.912Z,13
2016-09-24T02:06:46.907Z,13.1
2016-09-24T02:06:56.901Z,13.1
2016-09-24T02:07:06.897Z,13.1
2016-09-24T02:07:16.891Z,13.1
2016-09-24T02:07:26.886Z,13.1
2016-09-24T02:07:36.880Z,13.1
2016-09-24T02:07:46.876Z,13.1
2016-09-24T02:07:56.869Z,13.1
2016-09-24T02:08:06.863Z,13.1
2016-09-24T02:08:16.860Z,13.1
2016-09-24T02:08:26.855Z,13.1
2016-09-24T02:08:36.849Z,13.1
2016-09-24T02:08:46.844Z,13.1
2016-09-24T02:08:56.839Z,13.1
2016-09-24T02:09:06.834Z,13.1
2016-09-24T02:09:16.828Z,13.1
2016-09-24T02:09:26.822Z,13.1
2016-09-24T02:09:36.817Z,13.2
2016-09-24T02:09:46.813Z,13.1
2016-09-24T02:09:56.807Z,13.1
2016-09-24T02:10:06.802Z,13.1
2016-09-24T02:10:16.796Z,13.1
2016-09-24T02:10:26.792Z,13.1
2016-09-24T02:10:36.786Z,13.1
2016-09-24T02:10:46.781Z,13.1
2016-09-24T02:10:56.776Z,13.2
2016-09-24T02:11:06.771Z,13.2
2016-09-24T02:11:16.765Z,13.1
2016-09-24T02:11:26.761Z,13.1
2016-09-24T02:11:36.755Z,13.1
2016-09-24T02:11:46.751Z,13.1
2016-09-24T02:11:56.745Z,13
2016-09-24T02:12:06.738Z,13.1
2016-09-24T02:12:16.734Z,13.1
2016-09-24T02:12:26.732Z,13.1
2016-09-24T02:12:36.722Z,13.1
2016-09-24T02:12:46.718Z,13.2
2016-09-24T02:12:56.713Z,13.2
2016-09-24T02:13:06.708Z,13.2
2016-09-24T02:13:16.703Z,13.1
2016-09-24T02:13:26.697Z,13.1
2016-09-24T02:13:36.692Z,13.1
2016-09-24T02:13:46.687Z,13.1
2016-09-24T02:13:56.681Z,13.1